createdAt,value
2018-07-17T00:00:29.318Z,18.63
2018-07-17T00:01:29.496Z,18.74
2018-07-17T00:02:29.674Z,18.65
2018-07-17T00:03:29.857Z,18.66
2018-07-17T00:04:30.034Z,18.58
2018-07-17T00:05:30.210Z,18.66
2018-07-17T00:06:30.388Z,18.73
2018-07-17T00:07:30.564Z,18.68
2018-07-17T00:08:30.748Z,18.65
2018-07-17T00:09:30.969Z,18.63
2018-07-17T00:10:31.100Z,18.55
2018-07-17T00:11:31.286Z,18.53
2018-07-17T00:12:31.482Z,18.52
2018-07-17T00:13:31.666Z,18.53
2018-07-17T00:14:31.851Z,18.56
2018-07-17T00:15:32.041Z,18.59
2018-07-17T00:16:32.226Z,18.43
2018-07-17T00:17:32.399Z,18.44
2018-07-17T00:18:32.578Z,18.44
2018-07-17T00:19:32.763Z,18.43
2018-07-17T00:20:33.184Z,18.52
2018-07-17T00:21:33.134Z,18.56
2018-07-17T00:22:33.305Z,18.60
2018-07-17T00:23:33.506Z,18.60
2018-07-17T00:24:33.689Z,18.55
2018-07-17T00:25:33.862Z,18.60
2018-07-17T00:26:34.049Z,18.59
2018-07-17T00:27:34.245Z,18.49
2018-07-17T00:28:34.419Z,18.59
2018-07-17T00:29:34.617Z,18.65
2018-07-17T00:30:34.788Z,18.62
2018-07-17T00:31:34.971Z,18.53
2018-07-17T00:32:35.152Z,18.49
2018-07-17T00:33:35.324Z,18.49
2018-07-17T00:34:35.516Z,18.49
2018-07-17T00:35:35.687Z,18.63
2018-07-17T00:36:35.865Z,18.65
2018-07-17T00:37:36.045Z,18.56
2018-07-17T00:38:36.228Z,18.41
2018-07-17T00:39:36.425Z,18.43
2018-07-17T00:40:36.594Z,18.41
2018-07-17T00:41:36.768Z,18.34
2018-07-17T00:42:36.960Z,18.37
2018-07-17T00:43:37.143Z,18.35
2018-07-17T00:44:37.301Z,18.43
2018-07-17T00:45:37.489Z,18.25
2018-07-17T00:46:37.663Z,18.22
2018-07-17T00:47:37.844Z,18.22
2018-07-17T00:48:38.025Z,18.16
2018-07-17T00:49:38.199Z,18.03
2018-07-17T00:50:38.383Z,18.03
2018-07-17T00:51:38.574Z,18.03
2018-07-17T00:52:38.753Z,17.94
2018-07-17T00:53:38.931Z,17.90
2018-07-17T00:54:39.118Z,17.87
2018-07-17T00:55:39.362Z,17.86
2018-07-17T00:56:39.476Z,17.92
2018-07-17T00:57:39.699Z,17.97
2018-07-17T00:58:39.832Z,17.90
2018-07-17T00:59:40.015Z,17.95
2018-07-17T01:00:40.185Z,17.89
2018-07-17T01:01:40.362Z,17.67
2018-07-17T01:02:40.569Z,17.71
2018-07-17T01:03:40.724Z,17.56
2018-07-17T01:04:40.903Z,17.59
2018-07-17T01:05:41.077Z,17.52
2018-07-17T01:06:41.261Z,17.65
2018-07-17T01:07:41.439Z,17.57
2018-07-17T01:08:41.632Z,17.39
2018-07-17T01:09:41.801Z,17.41
2018-07-17T01:10:41.983Z,17.51
2018-07-17T01:11:42.165Z,17.57
2018-07-17T01:12:42.356Z,17.65
2018-07-17T01:13:42.523Z,17.56
2018-07-17T01:14:42.731Z,17.68
2018-07-17T01:15:42.873Z,17.59
2018-07-17T01:16:43.066Z,17.67
2018-07-17T01:17:43.231Z,17.52
2018-07-17T01:18:43.417Z,17.34
2018-07-17T01:19:43.599Z,17.33
2018-07-17T01:20:43.776Z,17.23
2018-07-17T01:21:43.960Z,17.31
2018-07-17T01:22:44.157Z,17.30
2018-07-17T01:23:44.335Z,17.39
2018-07-17T01:24:44.515Z,17.30
2018-07-17T01:25:44.699Z,17.36
2018-07-17T01:26:44.887Z,17.31
2018-07-17T01:27:45.058Z,17.33
2018-07-17T01:28:45.239Z,17.36
2018-07-17T01:29:45.431Z,17.44
2018-07-17T01:30:45.637Z,17.31
2018-07-17T01:31:45.791Z,17.36
2018-07-17T01:32:45.963Z,17.54
2018-07-17T01:33:46.140Z,17.54
2018-07-17T01:34:46.318Z,17.36
2018-07-17T01:35:46.501Z,17.41
2018-07-17T01:36:46.681Z,17.45
2018-07-17T01:37:46.866Z,17.36
2018-07-17T01:38:47.049Z,17.29
2018-07-17T01:39:47.237Z,17.24
2018-07-17T01:40:47.416Z,17.27
2018-07-17T01:41:47.595Z,17.05
2018-07-17T01:42:47.780Z,17.19
2018-07-17T01:43:47.960Z,17.12
2018-07-17T01:44:48.141Z,17.04
2018-07-17T01:45:48.336Z,17.02
2018-07-17T01:46:48.510Z,17.09
2018-07-17T01:47:48.693Z,17.09
2018-07-17T01:48:48.888Z,16.97
2018-07-17T01:49:49.058Z,16.97
2018-07-17T01:50:49.240Z,16.96
2018-07-17T01:51:49.425Z,17.05
2018-07-17T01:52:49.609Z,17.05
2018-07-17T01:53:49.785Z,17.09
2018-07-17T01:54:49.966Z,17.15
2018-07-17T01:55:50.145Z,17.08
2018-07-17T01:56:50.328Z,17.04
2018-07-17T01:57:50.507Z,16.91
2018-07-17T01:58:50.684Z,16.91
2018-07-17T01:59:50.871Z,16.87
2018-07-17T02:00:51.059Z,16.99
2018-07-17T02:01:51.236Z,16.94
2018-07-17T02:02:51.420Z,17.05
2018-07-17T02:03:51.601Z,16.91
2018-07-17T02:04:51.854Z,16.97
2018-07-17T02:05:51.965Z,16.94
2018-07-17T02:06:52.145Z,17.02
2018-07-17T02:07:52.334Z,16.96
2018-07-17T02:08:52.522Z,16.94
2018-07-17T02:09:52.698Z,16.97
2018-07-17T02:10:52.883Z,16.97
2018-07-17T02:11:53.057Z,16.99
2018-07-17T02:12:53.243Z,17.04
2018-07-17T02:13:53.418Z,17.05
2018-07-17T02:14:53.602Z,17.09
2018-07-17T02:15:53.786Z,17.02
2018-07-17T02:16:53.966Z,17.16
2018-07-17T02:17:54.151Z,17.22
2018-07-17T02:18:54.369Z,17.22
2018-07-17T02:19:54.518Z,17.23
2018-07-17T02:20:54.688Z,17.30
2018-07-17T02:21:54.877Z,17.23
2018-07-17T02:22:55.049Z,17.12
2018-07-17T02:23:55.230Z,17.20
2018-07-17T02:24:55.412Z,17.05
2018-07-17T02:25:55.596Z,17.15
2018-07-17T02:26:55.773Z,17.15
2018-07-17T02:27:55.953Z,17.12
2018-07-17T02:28:56.125Z,17.16
2018-07-17T02:29:56.313Z,17.20
2018-07-17T02:30:56.494Z,17.09
2018-07-17T02:31:56.675Z,17.08
2018-07-17T02:32:56.860Z,17.09
2018-07-17T02:33:57.035Z,17.02
2018-07-17T02:34:57.212Z,17.09
2018-07-17T02:35:57.400Z,16.94
2018-07-17T02:36:57.580Z,17.09
2018-07-17T02:37:57.755Z,17.01
2018-07-17T02:38:57.935Z,16.94
2018-07-17T02:39:58.118Z,17.02
2018-07-17T02:40:58.293Z,16.97
2018-07-17T02:41:58.479Z,16.83
2018-07-17T02:42:58.656Z,16.76
2018-07-17T02:43:58.843Z,16.75
2018-07-17T02:44:59.029Z,16.75
2018-07-17T02:45:59.216Z,16.78
2018-07-17T02:46:59.401Z,16.81
2018-07-17T02:47:59.575Z,16.79
2018-07-17T02:48:59.755Z,16.79
2018-07-17T02:49:59.936Z,16.79
2018-07-17T02:51:00.119Z,16.64
2018-07-17T02:52:00.304Z,16.64
2018-07-17T02:53:00.484Z,16.66
2018-07-17T02:54:00.664Z,16.74
2018-07-17T02:55:00.849Z,16.75
2018-07-17T02:56:01.026Z,16.68
2018-07-17T02:58:01.389Z,16.66
2018-07-17T02:59:01.567Z,16.79
2018-07-17T03:00:01.748Z,16.76
2018-07-17T03:01:01.934Z,16.72
2018-07-17T03:02:02.118Z,16.74
2018-07-17T03:03:02.303Z,16.71
2018-07-17T03:04:02.475Z,16.58
2018-07-17T03:05:02.655Z,16.58
2018-07-17T03:06:02.871Z,16.58
2018-07-17T03:07:03.083Z,16.53
2018-07-17T03:08:03.199Z,16.51
2018-07-17T03:09:03.373Z,16.65
2018-07-17T03:10:03.569Z,16.58
2018-07-17T03:11:03.745Z,16.65
2018-07-17T03:12:03.920Z,16.64
2018-07-17T03:13:04.098Z,16.71
2018-07-17T03:14:04.283Z,16.49
2018-07-17T03:15:04.465Z,16.49
2018-07-17T03:16:04.646Z,16.46
2018-07-17T03:17:04.825Z,16.47
2018-07-17T03:18:05.010Z,16.50
2018-07-17T03:19:05.189Z,16.54
2018-07-17T03:20:05.395Z,16.47
2018-07-17T03:21:05.553Z,16.47
2018-07-17T03:22:05.728Z,16.47
2018-07-17T03:23:05.912Z,16.57
2018-07-17T03:24:06.093Z,16.57
2018-07-17T03:25:06.273Z,16.58
2018-07-17T03:26:06.452Z,16.72
2018-07-17T03:27:06.638Z,16.75
2018-07-17T03:28:06.819Z,16.65
2018-07-17T03:29:07.009Z,16.65
2018-07-17T03:30:07.187Z,16.65
2018-07-17T03:32:07.550Z,16.68
2018-07-17T03:33:07.723Z,16.68
2018-07-17T03:34:07.906Z,16.68
2018-07-17T03:35:08.084Z,16.68
2018-07-17T03:36:08.262Z,16.69
2018-07-17T03:37:08.449Z,16.79
2018-07-17T03:38:08.907Z,16.83
2018-07-17T03:39:08.806Z,16.79
2018-07-17T03:40:08.989Z,16.83
2018-07-17T03:41:09.185Z,16.81
2018-07-17T03:42:09.346Z,16.71
2018-07-17T03:43:09.527Z,16.75
2018-07-17T03:44:09.713Z,16.83
2018-07-17T03:45:09.890Z,16.79
2018-07-17T03:46:10.066Z,16.79
2018-07-17T03:47:10.250Z,16.74
2018-07-17T03:48:10.427Z,16.79
2018-07-17T03:49:10.608Z,16.87
2018-07-17T03:50:10.794Z,16.90
2018-07-17T03:51:10.973Z,16.96
2018-07-17T03:52:11.152Z,16.91
2018-07-17T03:53:11.349Z,16.90
2018-07-17T03:54:11.514Z,16.81
2018-07-17T03:55:11.959Z,16.76
2018-07-17T03:56:11.878Z,16.78
2018-07-17T03:57:12.061Z,16.72
2018-07-17T03:58:12.239Z,16.74
2018-07-17T03:59:12.419Z,16.79
2018-07-17T04:00:12.599Z,16.75
2018-07-17T04:01:12.771Z,16.60
2018-07-17T04:02:12.949Z,16.61
2018-07-17T04:03:13.135Z,16.51
2018-07-17T04:04:13.358Z,16.53
2018-07-17T04:06:13.669Z,16.42
2018-07-17T04:07:13.855Z,16.41
2018-07-17T04:08:14.033Z,16.36
2018-07-17T04:09:14.212Z,16.36
2018-07-17T04:10:14.391Z,16.39
2018-07-17T04:11:14.573Z,16.46
2018-07-17T04:12:15.106Z,16.43
2018-07-17T04:13:14.946Z,16.50
2018-07-17T04:14:15.117Z,16.54
2018-07-17T04:16:15.475Z,16.49
2018-07-17T04:17:15.653Z,16.46
2018-07-17T04:18:15.833Z,16.56
2018-07-17T04:19:16.013Z,16.60
2018-07-17T04:20:16.195Z,16.61
2018-07-17T04:21:16.379Z,16.69
2018-07-17T04:22:16.564Z,16.78
2018-07-17T04:23:16.739Z,16.76
2018-07-17T04:24:16.922Z,16.74
2018-07-17T04:25:17.104Z,16.79
2018-07-17T04:26:17.278Z,16.76
2018-07-17T04:27:17.453Z,16.60
2018-07-17T04:28:17.639Z,16.41
2018-07-17T04:29:17.820Z,16.33
2018-07-17T04:30:18.004Z,16.33
2018-07-17T04:31:18.181Z,16.39
2018-07-17T04:32:18.365Z,16.43
2018-07-17T04:33:18.546Z,16.42
2018-07-17T04:34:18.725Z,16.54
2018-07-17T04:35:18.905Z,16.54
2018-07-17T04:36:19.089Z,16.76
2018-07-17T04:37:19.267Z,16.84
2018-07-17T04:38:19.470Z,16.72
2018-07-17T04:39:19.648Z,16.81
2018-07-17T04:40:19.816Z,16.78
2018-07-17T04:41:20.006Z,16.79
2018-07-17T04:42:20.184Z,16.86
2018-07-17T04:43:20.360Z,17.05
2018-07-17T04:44:20.543Z,17.57
2018-07-17T04:45:20.721Z,17.95
2018-07-17T04:46:20.903Z,18.11
2018-07-17T04:47:21.084Z,18.58
2018-07-17T04:48:21.262Z,19.22
2018-07-17T04:50:21.621Z,20.06
2018-07-17T04:51:21.805Z,20.18
2018-07-17T04:52:21.998Z,20.63
2018-07-17T04:53:22.171Z,20.95
2018-07-17T04:54:22.355Z,21.11
2018-07-17T04:55:22.535Z,21.60
2018-07-17T04:56:22.726Z,21.88
2018-07-17T04:57:22.907Z,22.14
2018-07-17T04:58:23.099Z,22.35
2018-07-17T04:59:23.272Z,22.06
2018-07-17T05:00:23.459Z,22.20
2018-07-17T05:01:23.661Z,22.72
2018-07-17T05:02:23.833Z,22.87
2018-07-17T05:03:24.016Z,23.54
2018-07-17T05:04:24.203Z,23.62
2018-07-17T05:05:24.406Z,23.47
2018-07-17T05:06:24.561Z,23.63
2018-07-17T05:07:24.775Z,23.71
2018-07-17T05:08:24.951Z,23.93
2018-07-17T05:09:25.218Z,24.13
2018-07-17T05:10:25.638Z,24.26
2018-07-17T05:11:25.536Z,24.05
2018-07-17T05:12:25.720Z,24.35
2018-07-17T05:13:25.899Z,24.47
2018-07-17T05:14:26.088Z,24.81
2018-07-17T05:15:26.274Z,24.84
2018-07-17T05:16:26.522Z,24.50
2018-07-17T05:17:26.954Z,24.80
2018-07-17T05:18:26.840Z,25.14
2018-07-17T05:19:27.021Z,25.17
2018-07-17T05:20:27.227Z,25.22
2018-07-17T05:22:27.600Z,25.26
2018-07-17T05:23:27.779Z,25.44
2018-07-17T05:24:27.963Z,25.60
2018-07-17T05:25:28.145Z,25.65
2018-07-17T05:26:28.342Z,25.51
2018-07-17T05:27:28.527Z,25.65
2018-07-17T05:28:28.722Z,25.44
2018-07-17T05:29:28.910Z,25.65
2018-07-17T05:30:29.091Z,26.00
2018-07-17T05:31:29.286Z,25.99
2018-07-17T05:32:29.469Z,25.96
2018-07-17T05:33:29.665Z,25.88
2018-07-17T05:34:29.850Z,25.87
2018-07-17T05:35:30.069Z,24.74
2018-07-17T05:36:30.231Z,23.74
2018-07-17T05:37:30.421Z,24.14
2018-07-17T05:38:30.615Z,23.98
2018-07-17T05:39:30.802Z,24.30
2018-07-17T05:40:30.998Z,24.42
2018-07-17T05:41:31.185Z,24.29
2018-07-17T05:42:31.380Z,24.48
2018-07-17T05:43:31.552Z,24.69
2018-07-17T05:44:31.744Z,24.42
2018-07-17T05:45:31.934Z,24.21
2018-07-17T05:46:32.183Z,24.18
2018-07-17T05:47:32.313Z,24.14
2018-07-17T05:48:32.507Z,23.56
2018-07-17T05:49:32.706Z,24.24
2018-07-17T05:50:32.912Z,24.30
2018-07-17T05:51:33.077Z,24.68
2018-07-17T05:52:33.267Z,24.57
2018-07-17T05:53:33.462Z,24.73
2018-07-17T05:54:33.653Z,24.28
2018-07-17T05:55:33.840Z,24.78
2018-07-17T05:56:34.039Z,25.08
2018-07-17T05:57:34.231Z,24.99
2018-07-17T05:58:34.415Z,25.38
2018-07-17T05:59:34.623Z,25.70
2018-07-17T06:00:34.816Z,25.90
2018-07-17T06:01:34.985Z,25.80
2018-07-17T06:02:35.209Z,25.80
2018-07-17T06:03:35.361Z,25.90
2018-07-17T06:04:36.138Z,25.40
2018-07-17T06:05:35.718Z,25.93
2018-07-17T06:06:35.907Z,25.81
2018-07-17T06:07:36.118Z,25.40
2018-07-17T06:08:36.321Z,25.85
2018-07-17T06:09:36.498Z,26.09
2018-07-17T06:10:36.705Z,26.26
2018-07-17T06:11:36.890Z,26.18
2018-07-17T06:12:37.075Z,25.58
2018-07-17T06:13:37.286Z,25.98
2018-07-17T06:14:37.488Z,26.48
2018-07-17T06:15:37.683Z,26.07
2018-07-17T06:16:37.876Z,26.43
2018-07-17T06:17:38.059Z,25.85
2018-07-17T06:18:38.273Z,26.37
2018-07-17T06:19:38.445Z,26.26
2018-07-17T06:20:38.642Z,26.47
2018-07-17T06:21:38.827Z,26.65
2018-07-17T06:22:39.024Z,26.85
2018-07-17T06:23:39.201Z,26.68
2018-07-17T06:24:39.399Z,26.77
2018-07-17T06:25:39.590Z,26.95
2018-07-17T06:26:39.782Z,27.10
2018-07-17T06:27:39.977Z,26.77
2018-07-17T06:28:40.164Z,27.15
2018-07-17T06:29:40.356Z,26.95
2018-07-17T06:30:40.548Z,26.96
2018-07-17T06:31:40.743Z,26.66
2018-07-17T06:32:40.944Z,27.02
2018-07-17T06:33:41.115Z,27.44
2018-07-17T06:34:41.315Z,26.96
2018-07-17T06:35:41.510Z,27.52
2018-07-17T06:36:41.685Z,27.32
2018-07-17T06:37:41.885Z,26.55
2018-07-17T06:38:42.095Z,25.91
2018-07-17T06:39:42.266Z,26.15
2018-07-17T06:40:42.466Z,26.44
2018-07-17T06:41:42.647Z,26.26
2018-07-17T06:42:42.836Z,26.80
2018-07-17T06:43:43.028Z,27.30
2018-07-17T06:44:43.298Z,27.47
2018-07-17T06:45:43.426Z,28.14
2018-07-17T06:46:43.611Z,27.98
2018-07-17T06:47:43.795Z,27.77
2018-07-17T06:48:44.003Z,27.68
2018-07-17T06:49:44.189Z,27.75
2018-07-17T06:50:44.406Z,27.86
2018-07-17T06:51:44.561Z,27.60
2018-07-17T06:52:44.750Z,26.97
2018-07-17T06:53:44.937Z,26.92
2018-07-17T06:54:45.158Z,27.20
2018-07-17T06:55:45.320Z,26.58
2018-07-17T06:56:45.512Z,26.83
2018-07-17T06:57:45.708Z,26.60
2018-07-17T06:58:45.872Z,27.03
2018-07-17T06:59:46.047Z,27.21
2018-07-17T07:00:46.241Z,27.55
2018-07-17T07:01:46.415Z,28.00
2018-07-17T07:02:46.606Z,28.39
2018-07-17T07:03:46.798Z,28.96
2018-07-17T07:04:46.993Z,29.14
2018-07-17T07:05:47.183Z,29.24
2018-07-17T07:06:47.371Z,29.38
2018-07-17T07:07:47.570Z,29.39
2018-07-17T07:08:47.762Z,29.75
2018-07-17T07:09:47.958Z,28.75
2018-07-17T07:10:48.145Z,28.64
2018-07-17T07:11:48.333Z,28.51
2018-07-17T07:12:48.526Z,27.92
2018-07-17T07:13:48.711Z,28.47
2018-07-17T07:14:48.893Z,28.56
2018-07-17T07:15:49.081Z,28.60
2018-07-17T07:16:49.523Z,28.47
2018-07-17T07:17:49.462Z,28.75
2018-07-17T07:18:49.663Z,29.10
2018-07-17T07:19:49.834Z,29.29
2018-07-17T07:20:50.020Z,29.73
2018-07-17T07:21:50.201Z,29.61
2018-07-17T07:22:50.393Z,29.90
2018-07-17T07:23:50.582Z,30.02
2018-07-17T07:24:50.790Z,30.18
2018-07-17T07:25:50.967Z,30.30
2018-07-17T07:26:51.155Z,30.57
2018-07-17T07:27:51.339Z,30.15
2018-07-17T07:28:51.537Z,30.32
2018-07-17T07:29:51.710Z,30.12
2018-07-17T07:30:51.902Z,29.81
2018-07-17T07:31:52.082Z,29.61
2018-07-17T07:32:52.279Z,29.75
2018-07-17T07:33:52.460Z,30.00
2018-07-17T07:34:52.649Z,30.35
2018-07-17T07:35:52.845Z,30.54
2018-07-17T07:36:53.037Z,30.72
2018-07-17T07:37:53.247Z,30.66
2018-07-17T07:38:53.407Z,30.34
2018-07-17T07:39:53.601Z,30.43
2018-07-17T07:40:53.795Z,30.92
2018-07-17T07:41:53.989Z,31.09
2018-07-17T07:42:54.268Z,31.39
2018-07-17T07:43:54.405Z,31.46
2018-07-17T07:44:54.613Z,31.28
2018-07-17T07:45:54.808Z,30.91
2018-07-17T07:46:54.997Z,31.39
2018-07-17T07:47:55.205Z,31.07
2018-07-17T07:48:55.410Z,30.78
2018-07-17T07:49:55.576Z,30.72
2018-07-17T07:50:55.755Z,31.02
2018-07-17T07:51:55.937Z,31.24
2018-07-17T07:52:56.132Z,31.25
2018-07-17T07:53:56.310Z,31.71
2018-07-17T07:54:56.496Z,31.65
2018-07-17T07:55:56.688Z,31.64
2018-07-17T07:56:56.880Z,31.81
2018-07-17T07:57:57.052Z,31.42
2018-07-17T07:59:57.425Z,32.08
2018-07-17T08:00:57.607Z,31.85
2018-07-17T08:01:57.780Z,31.54
2018-07-17T08:02:57.966Z,31.65
2018-07-17T08:03:58.146Z,31.80
2018-07-17T08:04:58.327Z,31.90
2018-07-17T08:05:58.496Z,31.76
2018-07-17T08:06:58.703Z,31.69
2018-07-17T08:07:58.893Z,32.15
2018-07-17T08:08:59.059Z,31.74
2018-07-17T08:09:59.252Z,31.99
2018-07-17T08:10:59.414Z,32.29
2018-07-17T08:11:59.656Z,32.00
2018-07-17T08:12:59.777Z,31.42
2018-07-17T08:13:59.953Z,29.82
2018-07-17T08:15:00.168Z,29.54
2018-07-17T08:16:00.335Z,29.94
2018-07-17T08:17:00.520Z,30.21
2018-07-17T08:18:00.717Z,30.62
2018-07-17T08:19:00.879Z,31.00
2018-07-17T08:20:01.050Z,30.90
2018-07-17T08:21:01.225Z,29.59
2018-07-17T08:22:01.415Z,30.19
2018-07-17T08:23:01.597Z,29.23
2018-07-17T08:24:01.778Z,29.34
2018-07-17T08:25:01.942Z,30.10
2018-07-17T08:26:02.141Z,30.53
2018-07-17T08:27:02.353Z,30.94
2018-07-17T08:28:02.532Z,31.49
2018-07-17T08:29:02.728Z,31.80
2018-07-17T08:30:02.907Z,30.83
2018-07-17T08:31:03.074Z,30.77
2018-07-17T08:32:03.262Z,31.28
2018-07-17T08:33:03.458Z,31.47
2018-07-17T08:34:03.646Z,31.76
2018-07-17T08:35:03.817Z,32.03
2018-07-17T08:36:03.998Z,32.22
2018-07-17T08:37:04.191Z,32.19
2018-07-17T08:38:04.385Z,32.26
2018-07-17T08:39:04.567Z,32.40
2018-07-17T08:40:04.775Z,32.37
2018-07-17T08:41:04.916Z,32.38
2018-07-17T08:42:05.112Z,32.33
2018-07-17T08:43:05.339Z,32.33
2018-07-17T08:44:05.479Z,32.18
2018-07-17T08:45:05.713Z,32.38
2018-07-17T08:46:05.850Z,32.14
2018-07-17T08:47:06.048Z,32.19
2018-07-17T08:48:06.239Z,32.43
2018-07-17T08:49:06.500Z,32.75
2018-07-17T08:50:06.634Z,32.80
2018-07-17T08:51:06.792Z,32.93
2018-07-17T08:52:06.975Z,32.68
2018-07-17T08:53:07.165Z,32.03
2018-07-17T08:54:07.435Z,32.01
2018-07-17T08:55:07.552Z,32.30
2018-07-17T08:56:07.727Z,32.36
2018-07-17T08:57:07.943Z,32.60
2018-07-17T08:58:08.140Z,32.23
2018-07-17T08:59:08.305Z,32.73
2018-07-17T09:00:08.509Z,32.77
2018-07-17T09:01:08.672Z,32.78
2018-07-17T09:02:08.893Z,33.27
2018-07-17T09:03:09.698Z,33.61
2018-07-17T09:04:09.218Z,33.76
2018-07-17T09:05:09.411Z,33.69
2018-07-17T09:06:09.593Z,34.02
2018-07-17T09:07:09.801Z,33.74
2018-07-17T09:08:10.223Z,34.01
2018-07-17T09:09:10.149Z,33.77
2018-07-17T09:10:10.333Z,33.89
2018-07-17T09:11:10.514Z,33.42
2018-07-17T09:12:10.706Z,33.61
2018-07-17T09:13:11.004Z,33.77
2018-07-17T09:14:11.067Z,33.40
2018-07-17T09:15:11.261Z,32.36
2018-07-17T09:16:11.448Z,31.76
2018-07-17T09:17:11.603Z,31.94
2018-07-17T09:18:11.810Z,32.21
2018-07-17T09:19:11.958Z,32.80
2018-07-17T09:20:12.131Z,33.30
2018-07-17T09:21:12.346Z,33.79
2018-07-17T09:22:12.532Z,34.11
2018-07-17T09:23:12.696Z,34.60
2018-07-17T09:24:12.883Z,34.57
2018-07-17T09:25:13.055Z,33.34
2018-07-17T09:26:13.231Z,33.46
2018-07-17T09:27:13.405Z,33.59
2018-07-17T09:28:13.616Z,33.58
2018-07-17T09:29:13.803Z,33.43
2018-07-17T09:30:13.975Z,32.87
2018-07-17T09:31:14.149Z,32.36
2018-07-17T09:32:14.338Z,32.83
2018-07-17T09:33:14.533Z,33.17
2018-07-17T09:34:14.741Z,33.36
2018-07-17T09:35:14.944Z,33.20
2018-07-17T09:36:15.104Z,32.89
2018-07-17T09:37:15.282Z,33.43
2018-07-17T09:38:15.529Z,33.74
2018-07-17T09:39:15.946Z,33.55
2018-07-17T09:40:15.905Z,33.30
2018-07-17T09:41:16.087Z,33.15
2018-07-17T09:42:16.506Z,32.82
2018-07-17T09:43:16.445Z,32.83
2018-07-17T09:44:16.642Z,31.73
2018-07-17T09:45:16.805Z,32.00
2018-07-17T09:46:16.994Z,32.31
2018-07-17T09:47:17.175Z,32.53
2018-07-17T09:48:17.361Z,32.55
2018-07-17T09:49:17.791Z,32.67
2018-07-17T09:50:17.753Z,32.93
2018-07-17T09:51:17.922Z,32.93
2018-07-17T09:52:18.111Z,32.90
2018-07-17T09:53:18.308Z,33.17
2018-07-17T09:54:18.532Z,33.28
2018-07-17T09:55:18.643Z,33.59
2018-07-17T09:56:18.832Z,33.94
2018-07-17T09:57:19.029Z,33.94
2018-07-17T09:58:19.193Z,34.16
2018-07-17T09:59:19.391Z,34.18
2018-07-17T10:00:19.570Z,33.59
2018-07-17T10:01:19.747Z,33.76
2018-07-17T10:02:19.938Z,33.65
2018-07-17T10:03:20.135Z,33.59
2018-07-17T10:04:20.305Z,33.34
2018-07-17T10:05:20.488Z,33.09
2018-07-17T10:06:20.706Z,33.32
2018-07-17T10:07:20.883Z,33.34
2018-07-17T10:08:21.091Z,33.39
2018-07-17T10:09:21.266Z,33.31
2018-07-17T10:10:21.486Z,33.30
2018-07-17T10:11:21.623Z,33.22
2018-07-17T10:12:21.830Z,33.12
2018-07-17T10:13:22.001Z,33.34
2018-07-17T10:14:22.207Z,33.31
2018-07-17T10:15:22.386Z,33.45
2018-07-17T10:16:22.582Z,33.28
2018-07-17T10:17:22.830Z,33.31
2018-07-17T10:18:23.003Z,33.32
2018-07-17T10:19:23.176Z,33.57
2018-07-17T10:20:23.382Z,33.47
2018-07-17T10:21:23.529Z,33.55
2018-07-17T10:22:23.706Z,33.73
2018-07-17T10:23:23.898Z,33.39
2018-07-17T10:24:24.064Z,32.78
2018-07-17T10:25:24.243Z,33.01
2018-07-17T10:26:24.482Z,33.01
2018-07-17T10:27:24.603Z,32.87
2018-07-17T10:28:24.779Z,32.85
2018-07-17T10:29:24.965Z,32.87
2018-07-17T10:30:25.138Z,33.23
2018-07-17T10:31:25.351Z,33.45
2018-07-17T10:32:25.519Z,33.36
2018-07-17T10:33:25.713Z,33.50
2018-07-17T10:34:25.891Z,33.45
2018-07-17T10:35:26.070Z,33.34
2018-07-17T10:36:26.253Z,33.32
2018-07-17T10:37:26.441Z,32.71
2018-07-17T10:38:26.622Z,32.93
2018-07-17T10:39:26.816Z,32.95
2018-07-17T10:40:26.996Z,33.12
2018-07-17T10:42:27.373Z,33.24
2018-07-17T10:43:27.537Z,33.39
2018-07-17T10:44:27.769Z,33.39
2018-07-17T10:45:27.945Z,33.64
2018-07-17T10:46:28.079Z,33.73
2018-07-17T10:47:28.289Z,33.69
2018-07-17T10:48:28.445Z,33.73
2018-07-17T10:49:28.611Z,33.28
2018-07-17T10:50:28.784Z,33.47
2018-07-17T10:51:28.999Z,33.57
2018-07-17T10:52:29.139Z,33.71
2018-07-17T10:53:29.354Z,33.68
2018-07-17T10:54:29.541Z,33.59
2018-07-17T10:55:29.720Z,33.61
2018-07-17T10:56:29.922Z,33.59
2018-07-17T10:57:30.112Z,33.62
2018-07-17T10:58:30.405Z,33.52
2018-07-17T10:59:30.471Z,33.28
2018-07-17T11:00:30.655Z,33.36
2018-07-17T11:01:30.833Z,33.47
2018-07-17T11:02:31.002Z,33.28
2018-07-17T11:03:31.177Z,33.24
2018-07-17T11:04:31.358Z,33.40
2018-07-17T11:05:31.545Z,33.55
2018-07-17T11:06:31.741Z,33.50
2018-07-17T11:07:31.935Z,33.55
2018-07-17T11:08:32.199Z,33.57
2018-07-17T11:09:32.294Z,33.68
2018-07-17T11:10:32.472Z,33.94
2018-07-17T11:11:32.652Z,33.80
2018-07-17T11:12:32.835Z,33.80
2018-07-17T11:13:33.018Z,33.68
2018-07-17T11:14:33.207Z,33.42
2018-07-17T11:15:33.766Z,33.07
2018-07-17T11:16:33.575Z,33.32
2018-07-17T11:17:33.763Z,33.12
2018-07-17T11:18:33.952Z,33.22
2018-07-17T11:19:34.141Z,33.49
2018-07-17T11:20:34.324Z,33.74
2018-07-17T11:21:34.494Z,33.80
2018-07-17T11:22:34.688Z,33.81
2018-07-17T11:23:34.876Z,33.90
2018-07-17T11:24:35.050Z,34.08
2018-07-17T11:25:35.239Z,34.16
2018-07-17T11:26:35.440Z,34.16
2018-07-17T11:27:35.645Z,33.86
2018-07-17T11:28:35.775Z,33.58
2018-07-17T11:29:35.977Z,33.27
2018-07-17T11:30:36.155Z,32.86
2018-07-17T11:31:36.361Z,33.02
2018-07-17T11:32:36.627Z,33.19
2018-07-17T11:33:36.815Z,33.28
2018-07-17T11:34:37.042Z,33.20
2018-07-17T11:35:37.163Z,33.28
2018-07-17T11:36:37.577Z,33.19
2018-07-17T11:37:37.472Z,33.15
2018-07-17T11:38:37.673Z,32.85
2018-07-17T11:39:37.830Z,32.90
2018-07-17T11:40:38.027Z,33.01
2018-07-17T11:41:38.198Z,32.85
2018-07-17T11:42:38.402Z,32.97
2018-07-17T11:43:38.566Z,33.12
2018-07-17T11:44:38.744Z,33.36
2018-07-17T11:45:38.933Z,33.42
2018-07-17T11:47:39.352Z,33.62
2018-07-17T11:48:39.470Z,33.62
2018-07-17T11:49:39.640Z,33.67
2018-07-17T11:50:39.818Z,33.43
2018-07-17T11:51:40.000Z,32.86
2018-07-17T11:52:40.208Z,32.90
2018-07-17T11:53:40.411Z,33.09
2018-07-17T11:54:40.599Z,33.19
2018-07-17T11:55:40.767Z,33.11
2018-07-17T11:56:40.968Z,33.32
2018-07-17T11:57:41.149Z,33.49
2018-07-17T11:58:41.331Z,33.43
2018-07-17T11:59:41.528Z,33.27
2018-07-17T12:00:41.714Z,33.45
2018-07-17T12:01:41.906Z,33.58
2018-07-17T12:02:42.083Z,33.47
2018-07-17T12:03:42.255Z,33.52
2018-07-17T12:04:42.451Z,33.57
2018-07-17T12:05:42.711Z,33.64
2018-07-17T12:06:42.832Z,33.59
2018-07-17T12:07:43.017Z,33.28
2018-07-17T12:08:43.203Z,33.08
2018-07-17T12:09:43.383Z,33.04
2018-07-17T12:11:43.744Z,33.49
2018-07-17T12:12:44.007Z,33.30
2018-07-17T12:13:44.133Z,33.15
2018-07-17T12:14:44.320Z,33.20
2018-07-17T12:15:44.507Z,33.14
2018-07-17T12:16:44.690Z,33.42
2018-07-17T12:17:44.886Z,33.28
2018-07-17T12:18:45.093Z,33.36
2018-07-17T12:19:45.307Z,33.24
2018-07-17T12:20:45.451Z,33.31
2018-07-17T12:21:45.750Z,33.40
2018-07-17T12:22:45.867Z,33.32
2018-07-17T12:23:46.007Z,33.50
2018-07-17T12:24:46.216Z,33.55
2018-07-17T12:25:46.415Z,33.74
2018-07-17T12:26:46.602Z,33.57
2018-07-17T12:27:46.796Z,33.46
2018-07-17T12:28:46.981Z,33.61
2018-07-17T12:29:47.160Z,33.28
2018-07-17T12:30:47.336Z,33.09
2018-07-17T12:31:47.542Z,33.05
2018-07-17T12:32:47.706Z,33.00
2018-07-17T12:33:47.903Z,32.93
2018-07-17T12:34:48.143Z,32.71
2018-07-17T12:35:48.273Z,32.41
2018-07-17T12:36:48.432Z,32.52
2018-07-17T12:37:48.647Z,32.55
2018-07-17T12:38:49.120Z,32.55
2018-07-17T12:39:48.980Z,32.40
2018-07-17T12:40:49.152Z,32.52
2018-07-17T12:41:49.366Z,32.82
2018-07-17T12:42:49.493Z,32.95
2018-07-17T12:43:49.683Z,32.95
2018-07-17T12:44:49.874Z,33.04
2018-07-17T12:45:50.047Z,32.96
2018-07-17T12:46:50.239Z,32.86
2018-07-17T12:47:50.412Z,32.77
2018-07-17T12:48:50.604Z,32.70
2018-07-17T12:49:50.806Z,32.89
2018-07-17T12:50:50.986Z,32.86
2018-07-17T12:51:51.138Z,32.92
2018-07-17T12:52:51.330Z,32.74
2018-07-17T12:53:51.524Z,32.75
2018-07-17T12:54:51.720Z,32.73
2018-07-17T12:55:51.932Z,32.93
2018-07-17T12:56:52.098Z,33.04
2018-07-17T12:57:52.288Z,33.04
2018-07-17T12:58:52.459Z,33.08
2018-07-17T12:59:52.640Z,33.28
2018-07-17T13:00:52.838Z,33.32
2018-07-17T13:01:53.005Z,33.20
2018-07-17T13:02:53.188Z,33.30
2018-07-17T13:03:53.383Z,33.19
2018-07-17T13:04:53.567Z,33.24